Time;durP1;ratioP1;P1;durP2;ratioP2;P2;SDS_P1;SDS_P2;PMS_P1;PMS_P2;Temp;Humidity;BMP_temperature;BMP_pressure;BME280_temperature;BME280_humidity;BME280_pressure;Samples;Min_cycle;Max_cycle;Signal;HPM_P1;HPM_P2
2023/06/16 00:01:31;;;;;;;10.37;7.50;;;17.70;99.90;;;;;;4948023;28;20266;-75
2023/06/16 00:03:58;;;;;;;7.87;7.07;;;17.70;99.90;;;;;;4950664;28;20218;-74
2023/06/16 00:06:27;;;;;;;7.60;7.00;;;17.80;99.90;;;;;;4952373;28;20214;-76
2023/06/16 00:08:54;;;;;;;8.37;6.73;;;17.80;99.90;;;;;;4948276;28;20216;-77
2023/06/16 00:11:21;;;;;;;8.27;7.47;;;17.70;99.90;;;;;;4953555;28;20233;-65
2023/06/16 00:13:48;;;;;;;8.20;7.43;;;17.60;99.90;;;;;;4948942;28;20198;-64
2023/06/16 00:16:19;;;;;;;7.47;6.77;;;17.60;99.90;;;;;;4952909;28;20205;-64
2023/06/16 00:18:45;;;;;;;8.87;7.77;;;17.60;99.90;;;;;;4952894;28;20203;-67
2023/06/16 00:21:14;;;;;;;8.07;7.30;;;17.50;99.90;;;;;;4952091;28;20539;-63
2023/06/16 00:23:40;;;;;;;9.70;8.53;;;17.60;99.90;;;;;;4934572;28;20229;-64
2023/06/16 00:26:05;;;;;;;9.57;8.67;;;17.50;99.90;;;;;;4955129;28;20207;-64
2023/06/16 00:28:31;;;;;;;8.73;7.63;;;17.40;99.90;;;;;;4950906;28;20561;-66
2023/06/16 00:30:56;;;;;;;10.90;7.77;;;17.20;99.90;;;;;;4950792;28;20657;-64
2023/06/16 00:33:22;;;;;;;7.53;6.83;;;17.30;99.90;;;;;;4951672;28;20206;-64
2023/06/16 00:35:47;;;;;;;10.43;6.93;;;17.10;99.90;;;;;;4949461;28;20831;-63
2023/06/16 00:38:13;;;;;;;8.20;7.50;;;17.10;99.90;;;;;;4951974;28;20202;-63
2023/06/16 00:40:39;;;;;;;6.63;6.03;;;17.00;99.90;;;;;;4951573;28;20214;-64
2023/06/16 00:43:04;;;;;;;11.83;6.90;;;17.10;99.90;;;;;;4951728;28;20205;-64
2023/06/16 00:45:30;;;;;;;8.27;6.60;;;17.20;99.90;;;;;;4952645;28;20214;-64
2023/06/16 00:47:59;;;;;;;8.73;7.27;;;17.10;99.90;;;;;;4950590;28;20248;-64
2023/06/16 00:50:24;;;;;;;8.73;6.93;;;17.00;99.90;;;;;;4949525;28;20207;-64
2023/06/16 00:52:50;;;;;;;7.90;6.63;;;17.10;99.90;;;;;;4954052;28;20283;-63
2023/06/16 00:55:19;;;;;;;8.87;7.97;;;17.00;99.90;;;;;;4951881;28;20229;-64
2023/06/16 00:57:44;;;;;;;7.87;7.13;;;17.00;99.90;;;;;;4945893;28;20266;-64
2023/06/16 01:00:11;;;;;;;10.77;7.60;;;17.00;99.90;;;;;;4960848;28;20206;-64
2023/06/16 01:02:38;;;;;;;10.33;6.53;;;17.00;99.90;;;;;;4960581;28;20239;-64
2023/06/16 01:05:06;;;;;;;8.13;7.20;;;17.00;99.90;;;;;;4956063;28;20218;-64
2023/06/16 01:07:41;;;;;;;7.37;6.50;;;17.00;99.90;;;;;;4959658;28;20209;-64
2023/06/16 01:10:22;;;;;;;10.10;6.60;;;17.00;99.90;;;;;;4959921;28;20189;-64
2023/06/16 01:13:16;;;;;;;7.53;6.30;;;17.10;99.90;;;;;;4959080;28;20229;-64
2023/06/16 01:15:45;;;;;;;8.40;7.60;;;17.10;99.90;;;;;;4951021;28;20205;-64
2023/06/16 01:18:14;;;;;;;9.03;7.17;;;17.10;99.90;;;;;;4960557;28;20202;-64
2023/06/16 01:20:53;;;;;;;6.97;6.27;;;17.10;99.90;;;;;;4960152;28;20672;-64
2023/06/16 01:23:37;;;;;;;10.20;7.00;;;17.10;99.90;;;;;;4960089;28;20739;-64
2023/06/16 01:26:04;;;;;;;7.47;6.77;;;17.10;99.90;;;;;;4959374;28;20241;-64
2023/06/16 01:28:32;;;;;;;10.00;7.50;;;17.00;99.90;;;;;;4959971;28;20564;-64
2023/06/16 01:31:00;;;;;;;11.43;6.53;;;17.00;99.90;;;;;;4960324;28;20289;-64
2023/06/16 01:33:26;;;;;;;7.80;7.00;;;17.00;99.90;;;;;;4960459;28;20207;-64
2023/06/16 01:35:53;;;;;;;6.80;6.20;;;17.00;99.90;;;;;;4960224;28;20212;-64
2023/06/16 01:38:21;;;;;;;7.80;7.07;;;16.90;99.90;;;;;;4958251;28;20605;-65
2023/06/16 01:40:51;;;;;;;9.27;7.90;;;16.90;99.90;;;;;;4954969;28;20216;-64
2023/06/16 01:43:19;;;;;;;6.97;5.80;;;16.90;99.90;;;;;;4951251;28;20209;-64
2023/06/16 01:45:46;;;;;;;7.73;6.90;;;16.90;99.90;;;;;;4948921;28;20928;-65
2023/06/16 01:48:11;;;;;;;6.47;5.87;;;16.80;99.90;;;;;;4954162;28;20205;-64
2023/06/16 01:50:37;;;;;;;7.37;5.87;;;16.80;99.90;;;;;;4959473;28;20201;-64
2023/06/16 01:53:02;;;;;;;8.93;7.13;;;16.80;99.90;;;;;;4960062;28;20265;-64
2023/06/16 01:55:28;;;;;;;7.67;6.97;;;16.70;99.90;;;;;;4959697;28;20228;-64
2023/06/16 01:57:56;;;;;;;7.53;6.60;;;16.70;99.90;;;;;;4959916;28;20211;-64
2023/06/16 02:00:29;;;;;;;7.23;6.53;;;16.70;99.90;;;;;;4958223;28;20517;-64
2023/06/16 02:03:04;;;;;;;7.13;6.53;;;16.70;99.90;;;;;;4958635;28;20324;-64
2023/06/16 02:05:32;;;;;;;8.03;7.23;;;16.60;99.90;;;;;;4952822;28;20699;-64
2023/06/16 02:08:01;;;;;;;7.57;6.83;;;16.60;99.90;;;;;;4959557;28;20197;-64
2023/06/16 02:10:27;;;;;;;7.93;6.07;;;16.70;99.90;;;;;;4949461;28;20696;-64
2023/06/16 02:12:52;;;;;;;6.77;5.63;;;16.70;99.90;;;;;;4931798;29;20203;-64
2023/06/16 02:15:18;;;;;;;8.93;6.03;;;16.70;99.90;;;;;;4949006;28;20202;-64
2023/06/16 02:17:45;;;;;;;8.73;5.67;;;16.70;99.90;;;;;;4944339;28;20214;-64
2023/06/16 02:20:12;;;;;;;6.23;5.63;;;16.70;99.90;;;;;;4946502;28;20237;-64
2023/06/16 02:22:37;;;;;;;8.43;5.77;;;16.70;99.90;;;;;;4950039;28;20194;-63
2023/06/16 02:25:03;;;;;;;6.37;5.50;;;16.70;99.90;;;;;;4949661;28;20809;-63
2023/06/16 02:27:29;;;;;;;5.93;5.33;;;16.70;99.90;;;;;;4932006;28;20197;-63
2023/06/16 02:29:54;;;;;;;7.13;6.37;;;16.70;99.90;;;;;;4948126;28;20272;-65
2023/06/16 02:32:20;;;;;;;6.23;4.93;;;16.60;99.90;;;;;;4948686;28;20186;-63
2023/06/16 02:34:46;;;;;;;6.13;5.13;;;16.60;99.90;;;;;;4951956;28;20303;-63
2023/06/16 02:37:12;;;;;;;6.13;5.57;;;16.60;99.90;;;;;;4959599;28;20680;-63
2023/06/16 02:39:39;;;;;;;5.93;5.30;;;16.50;99.90;;;;;;4958266;28;20235;-63
2023/06/16 02:42:05;;;;;;;6.77;5.90;;;16.50;99.90;;;;;;4957268;28;20201;-63
2023/06/16 02:44:30;;;;;;;7.37;5.77;;;16.60;99.90;;;;;;4958847;28;20224;-63
2023/06/16 02:46:57;;;;;;;7.10;4.97;;;16.60;99.90;;;;;;4957525;28;20194;-63
2023/06/16 02:49:23;;;;;;;7.13;5.40;;;16.60;99.90;;;;;;4956236;28;20198;-63
2023/06/16 02:51:50;;;;;;;6.00;5.43;;;16.60;99.90;;;;;;4958690;28;20247;-64
2023/06/16 02:54:15;;;;;;;8.03;5.70;;;16.50;99.90;;;;;;4956896;28;20289;-65
2023/06/16 02:56:41;;;;;;;6.23;5.63;;;16.50;99.90;;;;;;4958015;28;20288;-64
2023/06/16 02:59:07;;;;;;;7.33;6.07;;;16.50;99.90;;;;;;4954126;28;20249;-64
2023/06/16 03:01:33;;;;;;;6.00;5.33;;;16.50;99.90;;;;;;4958662;28;20668;-64
2023/06/16 03:03:59;;;;;;;8.83;5.80;;;16.50;99.90;;;;;;4954067;28;20304;-63
2023/06/16 03:06:29;;;;;;;6.77;6.17;;;16.40;99.90;;;;;;4956854;28;20539;-64
2023/06/16 03:08:57;;;;;;;8.00;6.17;;;16.40;99.90;;;;;;4958611;28;20952;-63
2023/06/16 03:11:23;;;;;;;7.13;6.43;;;16.40;99.90;;;;;;4958616;28;20198;-63
2023/06/16 03:13:48;;;;;;;7.40;6.53;;;16.40;99.90;;;;;;4958217;28;20203;-64
2023/06/16 03:16:16;;;;;;;8.30;6.97;;;16.40;99.90;;;;;;4956844;28;20272;-63
2023/06/16 03:18:42;;;;;;;6.80;6.30;;;16.40;99.90;;;;;;4958740;28;20680;-66
2023/06/16 03:21:08;;;;;;;7.93;7.13;;;16.40;99.90;;;;;;4954392;28;20201;-64
2023/06/16 03:23:33;;;;;;;7.43;6.77;;;16.40;99.90;;;;;;4958162;28;20217;-63
2023/06/16 03:25:59;;;;;;;7.03;6.43;;;16.40;99.90;;;;;;4957272;28;20222;-64
2023/06/16 03:28:25;;;;;;;8.47;7.67;;;16.40;99.90;;;;;;4958009;28;20284;-64
2023/06/16 03:30:54;;;;;;;9.43;7.40;;;16.40;99.90;;;;;;4958115;28;20288;-63
2023/06/16 03:33:20;;;;;;;7.67;6.97;;;16.40;99.90;;;;;;4958406;28;20285;-64
2023/06/16 03:35:45;;;;;;;8.00;7.20;;;16.40;99.90;;;;;;4958217;28;20292;-63
2023/06/16 03:38:11;;;;;;;8.47;7.63;;;16.40;99.90;;;;;;4958485;28;20198;-63
2023/06/16 03:40:38;;;;;;;10.43;7.77;;;16.40;99.90;;;;;;4955844;28;20252;-65
2023/06/16 03:43:03;;;;;;;8.47;6.97;;;16.40;99.90;;;;;;4953613;28;20202;-64
2023/06/16 03:45:29;;;;;;;7.97;7.17;;;16.40;99.90;;;;;;4958153;28;20209;-62
2023/06/16 03:47:54;;;;;;;10.60;7.53;;;16.30;99.90;;;;;;4958409;28;20285;-63
2023/06/16 03:50:20;;;;;;;7.77;6.97;;;16.30;99.90;;;;;;4958191;28;20290;-63
2023/06/16 03:52:45;;;;;;;9.23;8.33;;;16.20;99.90;;;;;;4953418;28;20672;-63
2023/06/16 03:55:11;;;;;;;9.33;8.57;;;16.30;99.90;;;;;;4955846;28;20225;-63
2023/06/16 03:57:37;;;;;;;8.57;7.87;;;16.30;99.90;;;;;;4955826;28;20280;-64
2023/06/16 04:00:06;;;;;;;10.63;8.23;;;16.30;99.90;;;;;;4957205;28;20205;-65
2023/06/16 04:02:32;;;;;;;10.27;8.50;;;16.30;99.90;;;;;;4952388;28;20216;-64
2023/06/16 04:05:00;;;;;;;8.43;7.67;;;16.30;99.90;;;;;;4952929;28;20218;-64
2023/06/16 04:07:26;;;;;;;11.47;9.57;;;16.20;99.90;;;;;;4948972;28;20202;-64
2023/06/16 04:09:52;;;;;;;10.57;9.47;;;16.10;99.90;;;;;;4957752;28;20209;-63
2023/06/16 04:12:17;;;;;;;8.87;8.03;;;16.10;99.90;;;;;;4957169;28;20691;-64
2023/06/16 04:14:43;;;;;;;12.30;8.17;;;16.10;99.90;;;;;;4957717;28;20197;-65
2023/06/16 04:17:08;;;;;;;9.33;8.43;;;16.10;99.90;;;;;;4939938;28;20664;-64
2023/06/16 04:19:34;;;;;;;9.27;7.87;;;16.10;99.90;;;;;;4951270;28;20235;-63
2023/06/16 04:21:59;;;;;;;13.53;9.67;;;16.20;99.90;;;;;;4957507;28;20206;-63
2023/06/16 04:24:25;;;;;;;9.73;8.83;;;16.20;99.90;;;;;;4957715;28;20727;-63
2023/06/16 04:26:53;;;;;;;12.10;8.53;;;16.20;99.90;;;;;;4961023;28;20571;-64
2023/06/16 04:29:20;;;;;;;8.87;7.97;;;16.20;99.90;;;;;;4961185;28;20795;-63
2023/06/16 04:31:48;;;;;;;8.77;7.93;;;16.20;99.90;;;;;;4959391;28;20212;-64
2023/06/16 04:34:14;;;;;;;10.47;8.80;;;16.20;99.90;;;;;;4961044;28;20936;-64
2023/06/16 04:36:44;;;;;;;9.00;8.10;;;16.30;99.90;;;;;;4961188;28;20244;-64
2023/06/16 04:39:11;;;;;;;9.77;7.90;;;16.30;99.90;;;;;;4961025;28;20207;-64
2023/06/16 04:41:37;;;;;;;9.57;8.67;;;16.30;99.90;;;;;;4952618;28;20230;-64
2023/06/16 04:44:03;;;;;;;9.53;8.73;;;16.30;99.90;;;;;;4955261;28;20593;-64
2023/06/16 04:46:29;;;;;;;8.83;8.03;;;16.30;99.90;;;;;;4960306;28;20567;-64
2023/06/16 04:48:54;;;;;;;9.37;8.50;;;16.20;99.90;;;;;;4948363;28;20939;-64
2023/06/16 04:51:20;;;;;;;9.50;8.60;;;16.30;99.90;;;;;;4960072;28;20325;-64
2023/06/16 04:53:45;;;;;;;9.50;8.50;;;16.30;99.90;;;;;;4951900;28;20254;-65
2023/06/16 04:56:11;;;;;;;7.97;7.33;;;16.30;99.90;;;;;;4947138;28;20203;-64
2023/06/16 04:58:36;;;;;;;8.93;7.97;;;16.30;99.90;;;;;;4945763;28;20206;-65
2023/06/16 05:01:02;;;;;;;10.90;8.57;;;16.20;99.90;;;;;;4946417;28;20300;-65
2023/06/16 05:03:27;;;;;;;12.20;8.57;;;16.30;99.90;;;;;;4955706;28;20218;-64
2023/06/16 05:05:53;;;;;;;9.03;8.13;;;16.30;99.90;;;;;;4954460;28;20218;-64
2023/06/16 05:08:18;;;;;;;8.87;8.07;;;16.30;99.90;;;;;;4954215;28;20209;-63
2023/06/16 05:10:44;;;;;;;9.00;7.93;;;16.30;99.90;;;;;;4955799;28;20207;-62
2023/06/16 05:13:09;;;;;;;8.77;7.97;;;16.30;99.90;;;;;;4957957;28;20201;-62
2023/06/16 05:15:35;;;;;;;8.50;7.70;;;16.20;99.90;;;;;;4960092;28;20209;-62
2023/06/16 05:18:00;;;;;;;9.40;8.50;;;16.30;99.90;;;;;;4960377;28;20201;-62
2023/06/16 05:20:26;;;;;;;9.33;8.53;;;16.20;99.90;;;;;;4955070;28;20214;-62
2023/06/16 05:22:51;;;;;;;9.00;8.23;;;16.30;99.90;;;;;;4957599;28;20206;-62
2023/06/16 05:25:17;;;;;;;10.53;8.50;;;16.30;99.90;;;;;;4955412;28;20695;-62
2023/06/16 05:27:42;;;;;;;8.13;7.43;;;16.30;99.90;;;;;;4942715;28;20217;-63
2023/06/16 05:30:08;;;;;;;8.00;7.37;;;16.30;99.90;;;;;;4960000;28;20581;-63
2023/06/16 05:32:34;;;;;;;11.13;7.97;;;16.30;99.90;;;;;;4958706;28;20213;-64
2023/06/16 05:34:59;;;;;;;7.77;7.07;;;16.20;99.90;;;;;;4960059;28;20206;-63
2023/06/16 05:37:25;;;;;;;8.80;7.97;;;16.30;99.90;;;;;;4957260;28;20265;-63
2023/06/16 05:39:51;;;;;;;10.43;7.47;;;16.30;99.90;;;;;;4955863;28;20198;-64
2023/06/16 05:42:16;;;;;;;7.67;6.97;;;16.30;99.90;;;;;;4959960;28;20931;-64
2023/06/16 05:44:43;;;;;;;7.13;6.53;;;16.30;99.90;;;;;;4950679;28;20636;-64
2023/06/16 05:47:09;;;;;;;9.37;7.00;;;16.30;99.90;;;;;;4947191;28;20193;-65
2023/06/16 05:49:35;;;;;;;8.10;7.40;;;16.30;99.90;;;;;;4950270;28;20668;-64
2023/06/16 05:52:02;;;;;;;8.00;7.27;;;16.30;99.90;;;;;;4950204;28;20504;-64
2023/06/16 05:54:31;;;;;;;7.70;7.00;;;16.30;99.90;;;;;;4950112;28;20277;-64
2023/06/16 05:56:57;;;;;;;7.70;7.10;;;16.30;99.90;;;;;;4950122;28;20206;-64
2023/06/16 05:59:22;;;;;;;6.87;6.30;;;16.30;99.90;;;;;;4948141;28;20303;-64
2023/06/16 06:01:51;;;;;;;7.57;6.97;;;16.30;99.90;;;;;;4953436;28;20202;-64
2023/06/16 06:04:20;;;;;;;6.97;6.40;;;16.30;99.90;;;;;;4945575;28;20746;-64
2023/06/16 06:06:46;;;;;;;7.00;6.30;;;16.30;99.90;;;;;;4944561;28;20194;-63
2023/06/16 06:09:11;;;;;;;6.03;5.53;;;16.20;99.90;;;;;;4947875;28;20197;-63
2023/06/16 06:11:37;;;;;;;6.00;5.50;;;16.10;99.90;;;;;;4949550;28;20233;-63
2023/06/16 06:14:02;;;;;;;6.13;5.70;;;16.10;99.90;;;;;;4950735;28;20198;-62
2023/06/16 06:16:28;;;;;;;5.93;5.43;;;16.10;99.90;;;;;;4948292;28;21384;-63
2023/06/16 06:18:53;;;;;;;8.57;5.67;;;16.10;99.90;;;;;;4948706;28;20280;-64
2023/06/16 06:21:19;;;;;;;5.97;5.47;;;16.10;99.90;;;;;;4952571;28;20255;-63
2023/06/16 06:23:44;;;;;;;6.03;5.50;;;16.20;99.90;;;;;;4944243;28;20258;-64
2023/06/16 06:26:10;;;;;;;6.20;5.60;;;16.20;99.90;;;;;;4949914;28;20219;-64
2023/06/16 06:28:35;;;;;;;6.57;6.07;;;16.20;99.90;;;;;;4950255;28;20198;-64
2023/06/16 06:31:02;;;;;;;5.80;5.13;;;16.10;99.90;;;;;;4951280;28;20217;-64
2023/06/16 06:33:27;;;;;;;6.17;5.67;;;16.10;99.90;;;;;;4959199;28;20205;-64
2023/06/16 06:35:53;;;;;;;6.93;6.20;;;16.10;99.90;;;;;;4957203;28;21042;-63
2023/06/16 06:38:18;;;;;;;10.17;6.97;;;16.10;99.90;;;;;;4948525;28;20679;-64
2023/06/16 06:40:44;;;;;;;7.80;6.87;;;16.00;99.90;;;;;;4949338;28;20209;-64
2023/06/16 06:43:10;;;;;;;8.40;7.50;;;16.00;99.90;;;;;;4949063;28;20252;-64
2023/06/16 06:45:35;;;;;;;8.17;7.47;;;15.90;99.90;;;;;;4948970;28;20249;-64
2023/06/16 06:48:00;;;;;;;7.10;6.60;;;15.90;99.90;;;;;;4946367;28;20206;-64
2023/06/16 06:50:26;;;;;;;8.10;7.07;;;15.90;99.90;;;;;;4949522;28;20194;-64
2023/06/16 06:52:51;;;;;;;9.73;8.53;;;16.00;99.90;;;;;;4949431;28;20896;-64
2023/06/16 06:55:18;;;;;;;8.90;7.70;;;16.00;99.90;;;;;;4949901;28;20221;-62
2023/06/16 06:57:44;;;;;;;10.50;7.50;;;16.00;99.90;;;;;;4949654;28;20751;-63
2023/06/16 07:00:10;;;;;;;7.20;6.57;;;16.00;99.90;;;;;;4948746;28;20230;-63
2023/06/16 07:02:36;;;;;;;7.63;6.33;;;16.00;99.90;;;;;;4946817;28;20245;-63
2023/06/16 07:05:02;;;;;;;8.30;7.50;;;15.90;99.90;;;;;;4948798;28;20241;-63
2023/06/16 07:07:28;;;;;;;8.43;6.70;;;15.90;99.90;;;;;;4948724;28;20630;-63
2023/06/16 07:09:53;;;;;;;6.57;6.03;;;15.90;99.90;;;;;;4950319;28;20209;-63
2023/06/16 07:12:18;;;;;;;10.20;6.53;;;15.90;99.90;;;;;;4947385;28;20194;-63
2023/06/16 07:14:48;;;;;;;8.13;7.43;;;15.90;99.90;;;;;;4948275;28;20202;-63
2023/06/16 07:17:13;;;;;;;7.93;7.30;;;15.90;99.90;;;;;;4947998;28;20202;-64
2023/06/16 07:19:39;;;;;;;8.17;6.57;;;15.90;99.90;;;;;;4949241;28;20858;-64
2023/06/16 07:22:05;;;;;;;9.53;8.53;;;15.90;99.90;;;;;;4949134;28;20792;-64
2023/06/16 07:24:31;;;;;;;8.97;8.17;;;15.90;99.90;;;;;;4948991;28;20229;-63
2023/06/16 07:26:59;;;;;;;8.67;7.87;;;16.00;99.90;;;;;;4947017;28;20821;-64
2023/06/16 07:29:25;;;;;;;9.43;8.60;;;16.10;99.90;;;;;;4948762;28;20614;-64
2023/06/16 07:31:51;;;;;;;9.20;8.27;;;16.10;99.90;;;;;;4948357;28;20293;-63
2023/06/16 07:34:16;;;;;;;10.07;9.07;;;16.10;99.90;;;;;;4948365;28;20242;-75
2023/06/16 07:36:42;;;;;;;8.00;7.30;;;16.10;99.90;;;;;;4947830;28;20619;-63
2023/06/16 07:39:07;;;;;;;11.33;9.83;;;16.10;99.90;;;;;;4946884;28;20202;-63
2023/06/16 07:41:33;;;;;;;10.00;9.10;;;16.20;99.90;;;;;;4952022;28;20240;-62
2023/06/16 07:43:59;;;;;;;9.50;8.60;;;16.20;99.90;;;;;;4945749;28;20234;-63
2023/06/16 07:46:24;;;;;;;9.87;8.87;;;16.20;99.90;;;;;;4950897;28;20209;-63
2023/06/16 07:48:50;;;;;;;11.23;10.23;;;16.30;99.90;;;;;;4948184;28;20202;-65
2023/06/16 07:51:16;;;;;;;9.73;8.83;;;16.40;99.90;;;;;;4948853;28;20281;-63
2023/06/16 07:53:42;;;;;;;10.77;9.77;;;16.50;99.90;;;;;;4946249;28;20226;-64
2023/06/16 07:56:11;;;;;;;10.77;9.77;;;16.50;99.90;;;;;;4947223;28;20202;-63
2023/06/16 07:58:38;;;;;;;12.70;9.87;;;16.50;99.90;;;;;;4950323;28;20662;-63
2023/06/16 08:01:04;;;;;;;10.47;9.50;;;16.60;99.90;;;;;;4948716;28;20285;-63
2023/06/16 08:03:30;;;;;;;11.27;10.17;;;16.60;99.90;;;;;;4955922;28;20233;-62
2023/06/16 08:05:57;;;;;;;11.17;9.10;;;16.70;99.90;;;;;;4950121;28;20220;-62
2023/06/16 08:08:23;;;;;;;12.03;9.33;;;16.90;99.90;;;;;;4952521;28;20203;-62
2023/06/16 08:10:51;;;;;;;11.47;9.67;;;17.20;99.90;;;;;;4952333;28;20206;-62
2023/06/16 08:13:16;;;;;;;9.77;8.83;;;17.30;99.90;;;;;;4952816;28;20197;-63
2023/06/16 08:15:41;;;;;;;9.20;8.30;;;17.60;99.90;;;;;;4947430;28;20256;-62
2023/06/16 08:18:07;;;;;;;10.20;9.30;;;17.80;99.90;;;;;;4952191;28;20209;-63
2023/06/16 08:20:32;;;;;;;10.23;9.20;;;17.80;99.90;;;;;;4949801;28;20684;-63
2023/06/16 08:22:58;;;;;;;10.03;8.03;;;17.80;99.90;;;;;;4951356;28;20206;-62
2023/06/16 08:25:24;;;;;;;19.63;9.70;;;17.60;99.90;;;;;;4953817;28;21002;-63
2023/06/16 08:27:49;;;;;;;14.07;8.63;;;17.40;99.90;;;;;;4950958;28;20198;-62
2023/06/16 08:30:18;;;;;;;7.00;6.40;;;17.00;99.90;;;;;;4945010;28;20237;-62
2023/06/16 08:32:43;;;;;;;7.73;5.60;;;16.50;99.90;;;;;;4952280;28;20265;-62
2023/06/16 08:35:10;;;;;;;11.37;6.67;;;16.20;99.90;;;;;;4952029;28;20613;-62
2023/06/16 08:37:36;;;;;;;11.57;7.23;;;16.10;99.90;;;;;;4952198;28;20202;-62
2023/06/16 08:40:04;;;;;;;8.90;7.93;;;16.10;99.90;;;;;;4951637;28;20194;-62
2023/06/16 08:42:30;;;;;;;7.07;6.43;;;16.10;99.90;;;;;;4949270;28;20691;-61
2023/06/16 08:44:57;;;;;;;7.50;6.63;;;16.10;99.90;;;;;;4951102;28;20213;-61
2023/06/16 08:47:25;;;;;;;8.00;6.63;;;16.00;99.90;;;;;;4951903;28;20281;-62
2023/06/16 08:49:52;;;;;;;7.03;6.30;;;16.00;99.90;;;;;;4951323;28;20643;-62
2023/06/16 08:52:20;;;;;;;21.40;15.10;;;16.10;99.90;;;;;;4955417;28;20240;-62
2023/06/16 08:54:48;;;;;;;6.60;6.00;;;16.10;99.90;;;;;;4943875;28;20206;-64
2023/06/16 08:57:17;;;;;;;6.83;6.23;;;16.20;99.90;;;;;;4952060;28;21347;-62
2023/06/16 08:59:45;;;;;;;6.43;5.80;;;16.10;99.90;;;;;;4951596;28;20202;-62
2023/06/16 09:02:11;;;;;;;6.73;5.73;;;16.00;99.90;;;;;;4949500;28;20205;-64
2023/06/16 09:04:37;;;;;;;6.53;5.90;;;16.00;99.90;;;;;;4951067;28;20300;-64
2023/06/16 09:07:03;;;;;;;6.10;5.50;;;16.00;99.90;;;;;;4950583;28;20205;-71
2023/06/16 09:09:29;;;;;;;6.03;5.60;;;16.10;99.90;;;;;;4950742;28;20190;-71
2023/06/16 09:12:05;;;;;;;6.97;6.37;;;16.10;99.90;;;;;;4949839;28;20210;-71
2023/06/16 09:14:33;;;;;;;6.63;6.13;;;16.10;99.90;;;;;;4939493;28;20293;-71
2023/06/16 09:17:05;;;;;;;6.53;5.93;;;16.20;99.90;;;;;;4951873;28;20627;-71
2023/06/16 09:19:34;;;;;;;8.80;6.50;;;16.30;99.90;;;;;;4949199;28;20276;-71
2023/06/16 09:21:59;;;;;;;7.93;7.23;;;16.40;99.90;;;;;;4950934;28;20549;-72
2023/06/16 09:24:27;;;;;;;7.77;7.07;;;16.50;99.90;;;;;;4951298;28;20237;-79
2023/06/16 09:26:57;;;;;;;8.10;7.30;;;16.60;99.90;;;;;;4957054;28;20275;-78
2023/06/16 09:29:25;;;;;;;6.17;5.67;;;16.70;99.90;;;;;;4930041;29;20248;-76
2023/06/16 09:31:51;;;;;;;7.20;6.60;;;16.70;99.90;;;;;;4951629;28;20691;-75
2023/06/16 09:34:18;;;;;;;5.70;5.20;;;16.80;99.90;;;;;;4954212;28;20717;-74
2023/06/16 09:36:43;;;;;;;5.87;5.47;;;16.90;99.90;;;;;;4948448;28;20385;-75
2023/06/16 09:39:24;;;;;;;5.13;4.73;;;16.90;99.90;;;;;;4951050;28;20285;-76
2023/06/16 09:41:51;;;;;;;7.07;5.47;;;16.90;99.90;;;;;;4946277;28;20751;-75
2023/06/16 09:44:16;;;;;;;5.43;4.80;;;16.90;99.90;;;;;;4950453;28;20313;-74
2023/06/16 09:46:43;;;;;;;5.27;4.77;;;16.90;99.90;;;;;;4953944;28;20201;-75
2023/06/16 09:49:23;;;;;;;5.17;4.73;;;17.00;99.90;;;;;;4946396;28;20203;-74
2023/06/16 09:51:50;;;;;;;5.83;5.40;;;17.10;99.90;;;;;;4945143;28;21152;-75
2023/06/16 09:54:17;;;;;;;6.97;5.70;;;17.10;99.90;;;;;;4950352;28;20264;-74
2023/06/16 09:56:44;;;;;;;7.43;5.10;;;17.20;99.90;;;;;;4950575;28;20205;-76
2023/06/16 09:59:10;;;;;;;6.20;5.30;;;17.30;99.90;;;;;;4945809;28;20237;-78
2023/06/16 10:01:38;;;;;;;5.70;5.13;;;17.50;99.90;;;;;;4954934;28;20206;-75
2023/06/16 10:04:07;;;;;;;5.47;4.93;;;17.60;99.90;;;;;;4947315;28;20265;-76
2023/06/16 10:06:33;;;;;;;5.80;5.07;;;17.50;99.90;;;;;;4947494;28;20222;-76
2023/06/16 10:09:02;;;;;;;5.57;5.07;;;17.40;99.90;;;;;;4950442;28;20684;-75
2023/06/16 10:11:29;;;;;;;5.80;5.30;;;17.30;99.90;;;;;;4950669;28;20736;-75
2023/06/16 10:13:58;;;;;;;5.83;5.33;;;17.30;99.90;;;;;;4950146;28;20281;-75
2023/06/16 10:16:28;;;;;;;5.60;5.20;;;17.40;99.90;;;;;;4948729;28;20583;-75
2023/06/16 10:19:02;;;;;;;5.90;5.30;;;17.40;99.90;;;;;;4946778;28;20260;-75
2023/06/16 10:21:28;;;;;;;7.07;5.90;;;17.50;99.90;;;;;;4933985;28;20202;-75
2023/06/16 10:23:55;;;;;;;6.03;5.57;;;17.50;99.90;;;;;;4943953;28;20313;-76
2023/06/16 10:26:21;;;;;;;5.27;4.87;;;17.50;99.90;;;;;;4940776;28;20719;-75
2023/06/16 10:28:47;;;;;;;6.57;4.60;;;17.50;99.90;;;;;;4953037;28;20740;-77
2023/06/16 10:31:14;;;;;;;5.77;5.27;;;17.50;99.90;;;;;;4947498;28;20286;-75
2023/06/16 10:33:57;;;;;;;7.10;5.40;;;17.50;99.90;;;;;;4958242;28;20715;-74
2023/06/16 10:36:29;;;;;;;5.30;4.80;;;17.50;99.90;;;;;;4945536;28;20296;-74
2023/06/16 10:39:07;;;;;;;5.50;5.00;;;17.50;99.90;;;;;;4949471;28;20202;-74
2023/06/16 10:41:33;;;;;;;6.07;5.00;;;17.50;99.90;;;;;;4941765;28;20206;-75
2023/06/16 10:44:21;;;;;;;6.00;5.40;;;17.40;99.90;;;;;;4932730;28;20887;-75
2023/06/16 10:47:12;;;;;;;5.80;4.97;;;17.50;99.90;;;;;;4944042;28;20289;-74
2023/06/16 10:49:57;;;;;;;8.00;5.10;;;17.60;99.90;;;;;;4942247;28;20204;-77
2023/06/16 10:52:29;;;;;;;4.90;4.50;;;17.90;99.90;;;;;;4950186;28;20285;-74
2023/06/16 10:54:59;;;;;;;9.37;5.67;;;18.00;99.90;;;;;;4946141;28;20291;-73
2023/06/16 10:57:25;;;;;;;5.10;4.33;;;18.10;99.90;;;;;;4942481;28;20301;-76
2023/06/16 11:00:10;;;;;;;6.43;5.03;;;18.20;99.90;;;;;;4948518;28;20212;-75
2023/06/16 11:02:37;;;;;;;5.63;5.00;;;18.20;99.90;;;;;;4945886;28;20298;-76
2023/06/16 11:05:13;;;;;;;5.30;4.80;;;18.20;99.90;;;;;;4948994;28;20241;-75
2023/06/16 11:07:42;;;;;;;4.60;4.00;;;18.30;99.90;;;;;;4947515;28;20232;-78
2023/06/16 11:10:17;;;;;;;6.40;4.57;;;18.20;99.90;;;;;;4949738;28;20214;-76
2023/06/16 11:12:43;;;;;;;5.83;5.33;;;18.20;99.90;;;;;;4946940;28;20205;-77
2023/06/16 11:15:09;;;;;;;5.50;5.00;;;18.30;99.90;;;;;;4932066;28;20203;-75
2023/06/16 11:17:35;;;;;;;5.93;5.33;;;18.40;99.90;;;;;;4925701;28;20347;-76
2023/06/16 11:20:05;;;;;;;6.37;4.63;;;18.40;99.90;;;;;;4930090;28;20206;-76
2023/06/16 11:22:32;;;;;;;7.23;5.00;;;18.30;99.90;;;;;;4948368;28;20524;-75
2023/06/16 11:24:59;;;;;;;5.83;4.60;;;18.20;99.90;;;;;;4948019;28;20244;-74
2023/06/16 11:27:26;;;;;;;6.13;5.63;;;18.20;99.90;;;;;;4947830;28;20712;-75
2023/06/16 11:29:53;;;;;;;5.33;4.83;;;18.20;99.90;;;;;;4948412;28;20214;-73
2023/06/16 11:32:22;;;;;;;5.27;4.83;;;18.20;99.90;;;;;;4948707;28;20268;-73
2023/06/16 11:34:48;;;;;;;5.37;4.97;;;18.10;99.90;;;;;;4948304;28;20762;-75
2023/06/16 11:37:13;;;;;;;5.97;5.37;;;18.10;99.90;;;;;;4950880;28;20304;-75
2023/06/16 11:39:43;;;;;;;6.20;5.60;;;18.30;99.90;;;;;;4945346;28;20206;-75
2023/06/16 11:42:15;;;;;;;6.13;5.53;;;18.70;99.90;;;;;;4949471;28;20198;-76
2023/06/16 11:44:45;;;;;;;9.70;5.63;;;19.20;99.90;;;;;;4947176;28;20214;-75
2023/06/16 11:47:11;;;;;;;9.90;5.73;;;19.20;99.90;;;;;;4948463;28;20225;-75
2023/06/16 11:49:37;;;;;;;6.43;5.93;;;19.10;99.90;;;;;;4948821;28;20198;-75
2023/06/16 11:52:06;;;;;;;9.93;5.50;;;19.00;99.90;;;;;;4948646;28;20259;-75
2023/06/16 11:54:33;;;;;;;5.80;5.30;;;18.90;99.90;;;;;;4948204;28;20606;-75
2023/06/16 11:56:59;;;;;;;6.07;5.30;;;18.80;99.90;;;;;;4948580;28;20195;-77
2023/06/16 11:59:30;;;;;;;7.17;4.73;;;18.80;99.90;;;;;;4949382;28;20234;-77
2023/06/16 12:02:03;;;;;;;4.33;3.93;;;18.70;99.90;;;;;;4949606;28;20240;-76
2023/06/16 12:04:31;;;;;;;5.67;5.00;;;18.60;99.90;;;;;;4953246;28;20210;-75
2023/06/16 12:06:57;;;;;;;4.67;4.20;;;18.60;99.90;;;;;;4944136;28;20226;-76
2023/06/16 12:09:24;;;;;;;8.73;5.07;;;18.60;99.90;;;;;;4948400;28;20228;-75
2023/06/16 12:11:52;;;;;;;5.00;4.60;;;18.70;99.90;;;;;;4948173;28;20194;-76
2023/06/16 12:14:21;;;;;;;4.90;4.23;;;18.80;99.90;;;;;;4953080;28;20212;-77
2023/06/16 12:16:53;;;;;;;4.77;4.37;;;18.90;99.90;;;;;;4946749;28;20783;-76
2023/06/16 12:19:20;;;;;;;6.07;4.30;;;18.80;99.90;;;;;;4949177;28;20194;-75
2023/06/16 12:21:50;;;;;;;4.50;3.73;;;18.90;99.90;;;;;;4949891;28;20909;-74
2023/06/16 12:24:20;;;;;;;6.40;4.30;;;19.00;99.90;;;;;;4945620;28;20234;-74
2023/06/16 12:26:45;;;;;;;9.37;4.90;;;19.10;99.90;;;;;;4949464;28;20231;-72
2023/06/16 12:29:13;;;;;;;4.57;4.20;;;19.30;99.90;;;;;;4949418;28;20618;-74
2023/06/16 12:32:02;;;;;;;4.57;4.17;;;19.40;99.90;;;;;;4945373;28;20207;-74
2023/06/16 12:34:35;;;;;;;3.93;3.63;;;19.50;99.90;;;;;;4949646;28;20849;-74
2023/06/16 12:37:07;;;;;;;7.37;4.57;;;19.50;99.90;;;;;;4946860;28;20211;-73
2023/06/16 12:39:34;;;;;;;4.87;3.87;;;19.70;99.90;;;;;;4949575;28;20370;-73
2023/06/16 12:42:07;;;;;;;7.17;4.63;;;19.80;99.90;;;;;;4946100;28;20217;-73
2023/06/16 12:44:50;;;;;;;4.50;4.03;;;19.90;99.90;;;;;;4930704;29;20216;-74
2023/06/16 12:47:22;;;;;;;5.30;4.83;;;20.10;99.90;;;;;;4948171;28;20236;-74